GCR221 ELLX-LIML
Flight info
| Callsign | GCR221 |
|---|---|
| Flight time | N/A |
| Altitude | 37000 |
| Route | GTQ DCT DEVDI DCT RIPUS DCT GERSA DCT SOSON DCT ODINA |
| Aircraft | R722/M-SDFGRWY/S |
Departure
| Time | 2026-05-07 10:28 |
|---|---|
| Airport | Luxembourg-Findel International Airport (ELLX) |
Arrival
| Time | N/A |
|---|---|
| Airport | Milano Linate Airport (LIML) |
| Time | Latitude | Longitude | Altitude | Speed | Heading |
|---|---|---|---|---|---|
| 2026-05-07 10:09 | 49.62478 | 6.19909 | 1192 ft | 0 kts | 319° |
| 2026-05-07 10:22 | 49.62472 | 6.19918 | 1191 ft | 2 kts | 319° |
| 2026-05-07 10:22 | 49.62466 | 6.19939 | 1191 ft | 2 kts | 259° |
| 2026-05-07 10:22 | 49.62475 | 6.19956 | 1191 ft | 2 kts | 213° |
| 2026-05-07 10:23 | 49.62484 | 6.19962 | 1192 ft | 0 kts | 192° |
| 2026-05-07 10:24 | 49.62419 | 6.19940 | 1190 ft | 32 kts | 193° |
| 2026-05-07 10:24 | 49.62291 | 6.19837 | 1188 ft | 7 kts | 284° |
| 2026-05-07 10:25 | 49.62296 | 6.19825 | 1188 ft | 1 kts | 311° |
| 2026-05-07 10:25 | 49.62301 | 6.19812 | 1188 ft | 2 kts | 285° |
| 2026-05-07 10:25 | 49.62287 | 6.19729 | 1186 ft | 20 kts | 245° |
| 2026-05-07 10:25 | 49.62206 | 6.19502 | 1182 ft | 30 kts | 238° |
| 2026-05-07 10:26 | 49.62090 | 6.19193 | 1171 ft | 40 kts | 241° |
| 2026-05-07 10:26 | 49.61937 | 6.18810 | 1171 ft | 42 kts | 224° |
| 2026-05-07 10:26 | 49.61866 | 6.18732 | 1171 ft | 2 kts | 189° |
| 2026-05-07 10:26 | 49.61847 | 6.18727 | 1172 ft | 0 kts | 189° |
| 2026-05-07 10:27 | 49.61831 | 6.18729 | 1172 ft | 5 kts | 160° |
| 2026-05-07 10:27 | 49.61803 | 6.18850 | 1174 ft | 28 kts | 72° |
| 2026-05-07 10:27 | 49.62072 | 6.19583 | 1179 ft | 138 kts | 60° |
| 2026-05-07 10:28 | 49.62604 | 6.21142 | 1968 ft | 163 kts | 62° |
| 2026-05-07 10:28 | 49.63088 | 6.22582 | 3638 ft | 161 kts | 58° |
| 2026-05-07 10:28 | 49.63731 | 6.24189 | 4221 ft | 215 kts | 62° |
| 2026-05-07 10:28 | 49.63864 | 6.26707 | 4747 ft | 253 kts | 107° |
| 2026-05-07 10:29 | 49.62895 | 6.28827 | 6135 ft | 247 kts | 134° |
| 2026-05-07 10:29 | 49.61619 | 6.30648 | 7395 ft | 258 kts | 137° |
| 2026-05-07 10:29 | 49.60361 | 6.32409 | 9356 ft | 253 kts | 136° |
| 2026-05-07 10:30 | 49.57869 | 6.36419 | 12582 ft | 275 kts | 133° |
| 2026-05-07 10:30 | 49.56581 | 6.38506 | 14082 ft | 283 kts | 135° |
| 2026-05-07 10:30 | 49.55046 | 6.40340 | 15434 ft | 287 kts | 150° |
| 2026-05-07 10:30 | 49.53251 | 6.41680 | 16546 ft | 294 kts | 159° |
| 2026-05-07 10:31 | 49.51362 | 6.42806 | 17687 ft | 298 kts | 159° |
| 2026-05-07 10:31 | 49.49475 | 6.44062 | 18787 ft | 303 kts | 156° |
| 2026-05-07 10:31 | 49.47582 | 6.45444 | 19739 ft | 311 kts | 156° |
| 2026-05-07 10:31 | 49.45662 | 6.46799 | 20761 ft | 313 kts | 157° |
| 2026-05-07 10:32 | 49.43692 | 6.48139 | 21771 ft | 318 kts | 158° |
| 2026-05-07 10:32 | 49.41776 | 6.49454 | 22626 ft | 324 kts | 157° |
| 2026-05-07 10:32 | 49.39681 | 6.50912 | 23583 ft | 328 kts | 157° |
| 2026-05-07 10:32 | 49.37622 | 6.52342 | 24505 ft | 333 kts | 158° |
| 2026-05-07 10:33 | 49.35553 | 6.53766 | 25385 ft | 337 kts | 157° |
| 2026-05-07 10:33 | 49.33433 | 6.55225 | 26297 ft | 341 kts | 157° |
| 2026-05-07 10:33 | 49.31322 | 6.56683 | 27169 ft | 345 kts | 156° |
| 2026-05-07 10:33 | 49.29163 | 6.58171 | 28051 ft | 349 kts | 156° |
| 2026-05-07 10:34 | 49.26973 | 6.59677 | 28950 ft | 353 kts | 156° |
| 2026-05-07 10:34 | 49.24795 | 6.61172 | 29792 ft | 357 kts | 156° |
| 2026-05-07 10:34 | 49.22573 | 6.62652 | 30616 ft | 361 kts | 156° |
| 2026-05-07 10:34 | 49.20374 | 6.64446 | 31382 ft | 368 kts | 145° |
| 2026-05-07 10:35 | 49.18623 | 6.67062 | 32136 ft | 373 kts | 123° |
| 2026-05-07 10:35 | 49.17672 | 6.70722 | 32873 ft | 379 kts | 98° |
| 2026-05-07 10:35 | 49.17787 | 6.74663 | 33544 ft | 386 kts | 75° |
| 2026-05-07 10:35 | 49.18864 | 6.78116 | 34120 ft | 392 kts | 52° |
| 2026-05-07 10:36 | 49.20934 | 6.80902 | 34764 ft | 397 kts | 27° |
| 2026-05-07 10:36 | 49.23499 | 6.82175 | 35389 ft | 399 kts | 4° |
| 2026-05-07 10:36 | 49.26161 | 6.81831 | 36004 ft | 400 kts | 341° |
| 2026-05-07 10:36 | 49.28567 | 6.79898 | 36630 ft | 399 kts | 318° |
| 2026-05-07 10:37 | 49.30276 | 6.76687 | 37268 ft | 397 kts | 296° |
| 2026-05-07 10:37 | 49.31123 | 6.72739 | 37324 ft | 413 kts | 276° |
| 2026-05-07 10:37 | 49.30941 | 6.68355 | 37315 ft | 431 kts | 254° |
| 2026-05-07 10:37 | 49.29668 | 6.64181 | 37321 ft | 451 kts | 234° |
| 2026-05-07 10:38 | 49.27495 | 6.60872 | 37318 ft | 465 kts | 215° |
| 2026-05-07 10:38 | 49.24635 | 6.58806 | 37314 ft | 464 kts | 196° |
| 2026-05-07 10:38 | 49.21527 | 6.58336 | 37309 ft | 468 kts | 177° |
| 2026-05-07 10:38 | 49.18462 | 6.59438 | 37322 ft | 471 kts | 160° |
| 2026-05-07 10:39 | 49.12692 | 6.63905 | 37312 ft | 474 kts | 153° |
| 2026-05-07 10:39 | 49.06976 | 6.68364 | 37306 ft | 472 kts | 158° |
| 2026-05-07 10:40 | 49.00894 | 6.71218 | 37308 ft | 469 kts | 170° |
| 2026-05-07 10:40 | 48.94782 | 6.73994 | 37307 ft | 471 kts | 160° |
| 2026-05-07 10:41 | 48.88963 | 6.78211 | 37311 ft | 473 kts | 154° |
| 2026-05-07 10:41 | 48.83160 | 6.82244 | 37311 ft | 471 kts | 160° |
| 2026-05-07 10:42 | 48.77248 | 6.86149 | 37305 ft | 472 kts | 156° |
| 2026-05-07 10:42 | 48.71475 | 6.90165 | 37306 ft | 471 kts | 158° |
| 2026-05-07 10:43 | 48.65548 | 6.94087 | 37305 ft | 472 kts | 157° |
| 2026-05-07 10:43 | 48.59720 | 6.98074 | 37305 ft | 472 kts | 158° |
| 2026-05-07 10:44 | 48.53860 | 7.01975 | 37308 ft | 472 kts | 158° |
| 2026-05-07 10:44 | 48.48038 | 7.05902 | 37308 ft | 471 kts | 158° |
| 2026-05-07 10:45 | 48.42136 | 7.09839 | 37309 ft | 471 kts | 158° |
| 2026-05-07 10:45 | 48.36279 | 7.13751 | 37309 ft | 472 kts | 158° |
| 2026-05-07 10:46 | 48.30425 | 7.17650 | 37307 ft | 471 kts | 158° |
| 2026-05-07 10:46 | 48.24605 | 7.21507 | 37308 ft | 471 kts | 158° |
| 2026-05-07 10:47 | 48.18736 | 7.25399 | 37309 ft | 471 kts | 158° |
| 2026-05-07 10:47 | 48.12850 | 7.29287 | 37309 ft | 471 kts | 158° |
| 2026-05-07 10:48 | 48.06999 | 7.33139 | 37309 ft | 471 kts | 158° |
| 2026-05-07 10:48 | 48.01123 | 7.37003 | 37309 ft | 471 kts | 158° |
| 2026-05-07 10:49 | 47.95343 | 7.40792 | 37309 ft | 472 kts | 159° |
| 2026-05-07 10:49 | 47.89372 | 7.44696 | 37310 ft | 472 kts | 159° |
| 2026-05-07 10:50 | 47.83492 | 7.48534 | 37310 ft | 472 kts | 159° |
| 2026-05-07 10:50 | 47.77659 | 7.52343 | 37309 ft | 472 kts | 158° |
| 2026-05-07 10:51 | 47.74870 | 7.54789 | 37301 ft | 476 kts | 146° |
| 2026-05-07 10:51 | 47.72437 | 7.57992 | 37294 ft | 481 kts | 135° |
| 2026-05-07 10:51 | 47.68796 | 7.64743 | 37311 ft | 476 kts | 128° |
| 2026-05-07 10:52 | 47.66941 | 7.68723 | 37310 ft | 465 kts | 126° |
| 2026-05-07 10:52 | 47.65192 | 7.72503 | 37306 ft | 438 kts | 128° |
| 2026-05-07 10:52 | 47.63501 | 7.75769 | 37283 ft | 403 kts | 133° |
| 2026-05-07 10:52 | 47.61692 | 7.78556 | 37287 ft | 368 kts | 142° |
| 2026-05-07 10:53 | 47.59843 | 7.80578 | 37284 ft | 336 kts | 154° |
| 2026-05-07 10:53 | 47.57826 | 7.81924 | 37280 ft | 302 kts | 168° |
| 2026-05-07 10:53 | 47.55911 | 7.82458 | 37268 ft | 270 kts | 182° |
| 2026-05-07 10:53 | 47.54203 | 7.82305 | 37236 ft | 240 kts | 196° |
| 2026-05-07 10:54 | 47.52707 | 7.81613 | 36985 ft | 221 kts | 209° |
| 2026-05-07 10:54 | 47.51481 | 7.80552 | 36541 ft | 212 kts | 220° |
| 2026-05-07 10:54 | 47.50388 | 7.79119 | 36019 ft | 206 kts | 230° |
| 2026-05-07 10:54 | 47.49512 | 7.77510 | 35384 ft | 203 kts | 237° |
| 2026-05-07 10:55 | 47.48781 | 7.75775 | 34479 ft | 209 kts | 241° |
| 2026-05-07 10:55 | 47.48468 | 7.74966 | 34065 ft | 210 kts | 242° |
| 2026-05-07 10:55 | 47.47811 | 7.73126 | 33211 ft | 207 kts | 245° |
| 2026-05-07 10:56 | 47.47236 | 7.71234 | 32275 ft | 205 kts | 250° |
| 2026-05-07 10:56 | 47.46781 | 7.69264 | 30990 ft | 211 kts | 255° |
| 2026-05-07 10:56 | 47.46405 | 7.67181 | 29851 ft | 217 kts | 256° |
| 2026-05-07 10:56 | 47.46067 | 7.65118 | 28990 ft | 206 kts | 258° |
| 2026-05-07 10:57 | 47.45781 | 7.63133 | 28040 ft | 203 kts | 261° |
| 2026-05-07 10:57 | 47.45550 | 7.61114 | 27019 ft | 202 kts | 264° |